Latest Weather Observations for Maningrida Airport

IDD60801

Issued at 8:31 pm CST Thursday 18 December 2014 (issued every 30 minutes, with the page automatically refreshed every 10 minutes)

About weather observations | Map of weather stations | Latest weather observations for NT | Other Formats
Station Details ID: 014405 Name: MANINGRIDA AIRPORT Lat: -12.06 Lon: 134.23 Height: 28.1 m
Data from the previous 72 hours. | See also: Recent months at Maningrida Airport
Date/Time
CST
Temp
°C
App
Temp
°C
Dew
Point
Rel
Hum
%
Delta-T
°C
Wind Press
QNH
hPa
Press
MSL
hPa
Rain
since 9 am
mm
Dir
 
Spd
km/h
Gust
km/h
Spd
kts
Gust
kts
18/08:30pm 30.6 34.3 25.7 75 3.5 NNW 17 24 9 13 1008.0 1007.8 0.0
18/08:00pm 30.7 34.2 26.0 76 3.4 N 19 24 10 13 1007.6 1007.4 0.0
18/07:30pm 30.7 34.4 25.8 75 3.5 N 17 20 9 11 1006.8 1006.6 0.0
18/07:00pm 30.8 34.0 25.6 74 3.7 N 19 24 10 13 1007.0 1006.8 0.0
18/06:30pm 31.1 33.8 25.0 70 4.3 N 20 26 11 14 1006.7 1006.5 0.0
18/06:00pm 31.7 34.7 25.5 69 4.4 N 20 26 11 14 1006.8 1006.6 0.0
18/05:30pm 32.0 34.5 25.3 67 4.8 N 22 28 12 15 1006.4 1006.2 0.0
18/05:00pm 32.5 35.9 26.1 69 4.6 N 20 28 11 15 1006.2 1006.0 0.0
18/04:30pm 32.2 35.0 25.8 69 4.6 N 22 30 12 16 1006.2 1006.0 0.0
18/04:00pm 32.6 35.8 25.9 68 4.8 N 20 30 11 16 1006.5 1006.3 0.0
18/03:30pm 32.9 35.7 26.4 68 4.7 NNW 24 32 13 17 1007.0 1006.8 0.0
18/03:00pm 32.3 35.3 26.1 70 4.4 N 22 28 12 15 1007.0 1006.8 0.0
18/02:30pm 33.3 36.4 26.3 66 5.0 N 22 32 12 17 1007.3 1007.1 0.0
18/02:00pm 33.6 36.5 26.6 67 5.1 N 24 30 13 16 1007.7 1007.5 0.0
18/01:30pm 33.5 36.7 26.5 67 5.1 N 22 30 12 16 1008.0 1007.8 0.0
18/01:00pm 33.5 36.7 26.5 67 5.0 N 22 28 12 15 1008.1 1007.9 0.0
18/12:30pm 33.2 36.8 26.5 68 4.8 N 20 30 11 16 1008.5 1008.3 0.0
18/12:00pm 33.6 36.1 25.3 62 5.9 N 22 30 12 16 1008.8 1008.6 0.0
18/11:30am 33.2 36.0 25.2 63 5.7 N 20 26 11 14 1009.1 1008.9 0.0
18/11:00am 32.7 36.2 25.5 66 5.1 NNW 17 26 9 14 1009.5 1009.3 0.0
18/10:30am 32.8 36.8 25.1 64 5.5 NNW 13 20 7 11 1009.6 1009.4 0.0
18/10:00am 32.9 37.9 25.4 64 5.3 NNW 9 15 5 8 1009.8 1009.6 0.0
18/09:30am 32.3 37.4 24.9 65 5.2 WNW 7 13 4 7 1009.9 1009.7 0.0
18/09:00am 31.8 37.1 25.2 68 4.7 WNW 7 11 4 6 1009.6 1009.4 0.0
18/08:30am 31.5 37.1 25.4 70 4.3 WSW 6 11 3 6 1009.5 1009.3 0.0
18/08:00am 30.6 36.4 25.7 75 3.5 W 6 11 3 6 1009.2 1009.0 0.0
18/07:30am 29.5 34.8 25.9 81 2.6 WSW 9 13 5 7 1009.0 1008.8 0.0
18/07:00am 28.7 35.7 26.5 88 1.6 SW 2 7 1 4 1008.5 1008.3 0.0
18/06:30am 27.2 34.7 27.2 100 0.0 SW 2 7 1 4 1008.0 1007.8 0.0
18/06:00am 27.0 33.6 27.0 100 0.0 SW 6 7 3 4 1007.5 1007.3 0.0
18/05:30am 27.2 33.8 27.2 100 0.0 SW 7 11 4 6 1007.1 1006.9 0.0
18/05:00am 27.6 35.2 27.3 98 0.2 WSW 2 6 1 3 1006.7 1006.5 0.0
18/04:30am 28.0 35.1 27.1 95 0.6 WSW 4 7 2 4 1006.7 1006.5 0.0
18/04:00am 28.7 35.3 27.3 92 1.0 WNW 7 11 4 6 1006.6 1006.4 0.0
18/03:30am 28.9 35.7 27.5 92 1.0 NW 7 11 4 6 1006.7 1006.5 0.0
18/03:00am 28.5 35.2 27.1 92 1.0 WNW 6 9 3 5 1006.5 1006.3 0.0
18/02:30am 28.6 35.2 27.0 91 1.2 WNW 6 9 3 5 1006.5 1006.3 0.0
18/02:00am 29.3 35.6 27.3 89 1.4 NW 9 13 5 7 1006.8 1006.6 0.0
18/01:30am 27.9 34.8 26.3 91 1.1 SW 2 7 1 4 1007.1 1006.9 0.0
18/01:00am 27.9 34.9 25.9 89 1.4 CALM 0 0 0 0 1007.3 1007.1 0.0
18/12:30am 28.2 34.4 25.8 87 1.7 NW 4 7 2 4 1007.6 1007.4 0.0
18/12:00am 27.9 34.4 25.1 85 2.0 CALM 0 0 0 0 1007.9 1007.7 0.0
 
Date/Time
CST
Temp
°C
App
Temp
°C
Dew
Point
Rel
Hum
%
Delta-T
°C
Wind Press
QNH
hPa
Press
MSL
hPa
Rain
since 9 am
mm
Dir
 
Spd
km/h
Gust
km/h
Spd
kts
Gust
kts
17/11:30pm 28.2 34.7 25.0 83 2.2 CALM 0 0 0 0 1008.2 1008.0 0.0
17/11:00pm 28.4 33.5 24.6 80 2.6 W 6 7 3 4 1008.3 1008.1 0.0
17/10:30pm 29.0 33.9 24.3 76 3.3 NW 6 9 3 5 1008.2 1008.0 0.0
17/10:00pm 29.1 33.6 24.0 74 3.5 WNW 7 11 4 6 1008.3 1008.1 0.0
17/09:30pm 29.2 33.7 23.9 73 3.7 W 7 11 4 6 1008.2 1008.0 0.0
17/09:00pm 29.2 33.5 24.3 75 3.4 W 9 13 5 7 1007.5 1007.3 0.0
17/08:30pm 29.6 34.3 25.6 79 2.8 W 11 17 6 9 1006.9 1006.7 0.0
17/08:00pm 30.3 34.3 26.2 79 2.9 NW 17 24 9 13 1006.3 1006.1 0.0
17/07:30pm 30.4 34.3 26.1 78 3.1 NW 17 24 9 13 1005.9 1005.7 0.0
17/07:00pm 30.4 34.2 25.9 77 3.2 NW 17 24 9 13 1005.5 1005.3 0.0
17/06:30pm 30.6 34.3 26.3 78 3.1 NW 19 26 10 14 1005.6 1005.4 0.0
17/06:00pm 31.0 33.7 26.3 76 3.4 NNW 24 32 13 17 1005.0 1004.8 0.0
17/05:30pm 31.0 34.5 26.3 76 3.4 N 20 28 11 15 1004.7 1004.5 0.0
17/05:00pm 31.1 34.4 26.6 77 3.2 N 22 30 12 16 1004.4 1004.2 0.0
17/04:30pm 30.9 34.5 26.4 77 3.2 N 20 26 11 14 1004.0 1003.8 0.0
17/04:00pm 31.1 34.9 26.8 78 3.1 N 20 30 11 16 1004.6 1004.4 0.0
17/03:30pm 31.3 34.8 26.3 75 3.6 N 20 26 11 14 1004.9 1004.7 0.0
17/03:00pm 31.2 35.0 26.7 77 3.2 N 20 26 11 14 1004.6 1004.4 0.0
17/02:30pm 31.5 34.5 26.1 73 3.9 N 22 33 12 18 1005.0 1004.8 0.0
17/02:00pm 32.0 34.6 26.1 71 4.2 N 24 30 13 16 1005.5 1005.3 0.0
17/01:30pm 32.3 33.5 25.1 65 5.1 N 28 37 15 20 1005.7 1005.5 0.0
17/01:00pm 32.8 35.3 25.9 67 4.9 N 24 32 13 17 1006.5 1006.3 0.0
17/12:30pm 33.9 36.8 26.6 65 5.3 N 24 33 13 18 1006.9 1006.7 0.0
17/12:00pm 33.8 37.0 26.5 65 5.3 N 22 28 12 15 1007.2 1007.0 0.0
17/11:30am 34.2 37.2 25.6 61 6.2 N 20 28 11 15 1007.6 1007.4 0.0
17/11:00am 33.8 37.2 25.2 60 6.1 N 17 24 9 13 1007.6 1007.4 0.0
17/10:30am 33.6 38.2 24.8 60 6.2 NW 9 17 5 9 1007.8 1007.6 0.0
17/10:00am 32.7 37.1 25.0 64 5.4 WNW 11 17 6 9 1007.9 1007.7 0.0
17/09:30am 32.4 37.1 25.0 65 5.2 WSW 9 13 5 7 1008.2 1008.0 0.0
17/09:00am 32.1 37.0 25.2 67 4.9 WSW 9 15 5 8 1008.0 1007.8 0.0
17/08:30am 31.4 36.6 25.7 71 4.1 W 9 15 5 8 1008.0 1007.8 0.0
17/08:00am 30.4 35.5 26.1 78 3.1 WNW 11 17 6 9 1008.0 1007.8 0.0
17/07:30am 29.8 35.2 26.6 83 2.3 W 11 19 6 10 1007.8 1007.6 0.0
17/07:00am 29.4 35.2 26.6 85 2.0 WSW 9 15 5 8 1007.3 1007.1 0.0
17/06:30am 28.8 35.1 26.8 89 1.4 W 7 15 4 8 1007.1 1006.9 0.0
17/06:00am 28.5 34.7 26.7 90 1.3 W 7 13 4 7 1006.6 1006.4 0.0
17/05:30am 28.7 34.4 26.5 88 1.6 W 9 15 5 8 1006.0 1005.8 0.0
17/05:00am 28.8 34.3 26.8 89 1.4 WNW 11 20 6 11 1005.6 1005.4 0.0
17/04:30am 28.9 35.2 27.3 91 1.2 WNW 9 15 5 8 1005.4 1005.2 0.0
17/04:00am 29.1 35.9 27.5 91 1.2 WNW 7 11 4 6 1005.4 1005.2 0.0
17/03:30am 29.3 35.6 27.3 89 1.4 WNW 9 15 5 8 1005.5 1005.3 0.0
17/03:00am 29.4 35.2 27.2 88 1.6 NW 11 17 6 9 1005.5 1005.3 0.0
17/02:30am 29.6 35.4 27.2 87 1.7 NW 11 17 6 9 1005.7 1005.5 0.0
17/02:00am 29.6 35.3 27.0 86 1.9 NW 11 17 6 9 1005.8 1005.6 0.0
17/01:30am 29.7 35.1 27.1 86 1.9 NW 13 17 7 9 1006.1 1005.9 0.0
17/01:00am 29.9 35.3 27.1 85 2.0 NW 13 19 7 10 1006.4 1006.2 0.0
17/12:30am 30.1 35.6 27.3 85 2.0 NW 13 20 7 11 1006.8 1006.6 0.0
17/12:00am 30.1 34.8 27.3 85 2.0 NNW 17 22 9 12 1006.8 1006.6 0.0
 
Date/Time
CST
Temp
°C
App
Temp
°C
Dew
Point
Rel
Hum
%
Delta-T
°C
Wind Press
QNH
hPa
Press
MSL
hPa
Rain
since 9 am
mm
Dir
 
Spd
km/h
Gust
km/h
Spd
kts
Gust
kts
16/11:30pm 30.1 35.2 27.3 85 2.0 NW 15 24 8 13 1006.7 1006.5 0.0
16/11:00pm 30.1 35.4 27.5 86 1.9 NW 15 22 8 12 1006.9 1006.7 0.0
16/10:30pm 30.1 35.4 27.5 86 1.9 NW 15 20 8 11 1006.6 1006.4 0.0
16/10:00pm 30.1 35.1 27.1 84 2.2 NW 15 20 8 11 1006.5 1006.3 0.0
16/09:30pm 30.2 35.8 27.4 85 2.0 NW 13 19 7 10 1006.4 1006.2 0.0
16/09:00pm 30.4 35.6 27.4 84 2.2 NNW 15 22 8 12 1006.2 1006.0 0.0
16/08:30pm 30.3 34.7 27.3 84 2.2 NW 19 28 10 15 1005.8 1005.6 0.0
16/08:00pm 30.3 35.0 27.3 84 2.2 NW 17 24 9 13 1005.6 1005.4 0.0
16/07:30pm 30.5 35.1 27.1 82 2.5 NNW 17 24 9 13 1005.2 1005.0 0.0
16/07:00pm 30.6 35.3 26.7 80 2.8 NW 15 20 8 11 1005.4 1005.2 0.0
16/06:30pm 30.8 34.2 26.7 79 3.0 NNW 22 30 12 16 1005.0 1004.8 0.0
16/06:00pm 31.5 33.9 26.3 74 3.7 NNW 26 35 14 19 1004.3 1004.1 0.0
16/05:30pm 32.1 34.7 26.6 72 4.0 NNW 26 32 14 17 1003.8 1003.6 0.0
16/05:00pm 32.8 35.1 25.6 66 5.1 N 24 32 13 17 1003.8 1003.6 0.0
16/04:30pm 32.9 35.4 25.9 66 5.0 N 24 33 13 18 1004.1 1003.9 0.0
16/04:00pm 33.8 36.2 25.8 63 5.7 N 24 30 13 16 1004.1 1003.9 0.0
16/03:30pm 33.1 35.7 26.1 66 5.0 N 24 32 13 17 1004.5 1004.3 0.0
16/03:00pm 33.8 36.5 26.8 67 5.1 NNW 26 33 14 18 1004.7 1004.5 0.0
16/02:30pm 33.8 36.5 26.8 67 5.1 NNW 26 35 14 19 1005.3 1005.1 0.0
16/02:00pm 33.5 35.7 26.0 65 5.4 N 26 33 14 18 1005.5 1005.3 0.0
16/01:30pm 33.9 35.8 25.6 62 5.9 N 26 37 14 20 1006.1 1005.9 0.0
16/01:00pm 33.5 35.7 26.0 65 5.4 N 26 33 14 18 1006.5 1006.3 0.0
16/12:30pm 33.7 36.4 26.2 65 5.4 N 24 32 13 17 1006.8 1006.6 0.0
16/12:00pm 34.4 37.2 25.2 58 6.6 N 20 26 11 14 1007.2 1007.0 0.0
16/11:30am 34.6 38.3 24.5 55 7.1 NW 13 20 7 11 1007.6 1007.4 0.0
16/11:00am 33.7 37.3 24.3 58 6.6 NNW 13 20 7 11 1007.8 1007.6 0.0
16/10:30am 34.2 38.0 24.7 57 6.7 NW 13 20 7 11 1008.2 1008.0 0.0
16/10:00am 33.5 37.4 24.9 60 6.1 WNW 13 20 7 11 1008.4 1008.2 0.0
16/09:30am 32.5 36.4 24.8 64 5.4 WNW 13 22 7 12 1008.5 1008.3 0.0
16/09:00am 32.5 37.4 25.8 68 4.8 W 11 22 6 12 1008.7 1008.5 0.0
16/08:30am 31.3 34.8 25.4 71 4.2 WNW 17 20 9 11 1008.8 1008.6 0.0
16/08:00am 30.5 34.7 26.0 77 3.2 WNW 15 22 8 12 1008.7 1008.5 0.0
16/07:30am 29.9 34.6 26.1 80 2.7 WNW 13 20 7 11 1008.4 1008.2 0.0
16/07:00am 29.2 34.5 26.4 85 2.0 WNW 11 19 6 10 1008.0 1007.8 0.0
16/06:30am 28.8 34.5 26.4 87 1.7 WNW 9 13 5 7 1007.7 1007.5 0.0
16/06:00am 28.6 34.5 26.8 90 1.3 W 9 13 5 7 1007.4 1007.2 0.0
16/05:30am 28.7 34.9 26.7 89 1.4 W 7 13 4 7 1007.0 1006.8 0.0
16/05:00am 29.0 34.9 26.8 88 1.6 WNW 9 15 5 8 1006.6 1006.4 0.0
16/04:30am 29.2 35.3 27.0 88 1.6 WNW 9 13 5 7 1006.4 1006.2 0.0
16/04:00am 29.2 35.4 27.2 89 1.4 WNW 9 20 5 11 1006.3 1006.1 0.0
16/03:30am 29.4 35.0 27.4 89 1.4 WNW 13 17 7 9 1006.0 1005.8 0.0
16/03:00am 29.5 35.0 27.3 88 1.6 NW 13 20 7 11 1006.1 1005.9 0.0
16/02:30am 29.5 35.0 27.3 88 1.6 NW 13 19 7 10 1006.2 1006.0 0.0
16/02:00am 29.5 35.4 27.3 88 1.6 NW 11 17 6 9 1006.6 1006.4 0.0
16/01:30am 29.5 35.6 27.1 87 1.7 NW 9 13 5 7 1006.9 1006.7 0.0
16/01:00am 29.6 36.4 27.2 87 1.7 W 6 13 3 7 1007.6 1007.4 0.0
16/12:30am 29.6 35.7 27.0 86 1.9 NW 9 15 5 8 1007.2 1007.0 0.0
16/12:00am 29.8 36.1 27.4 87 1.7 WNW 9 15 5 8 1007.7 1007.5 0.0
 
Date/Time
CST
Temp
°C
App
Temp
°C
Dew
Point
Rel
Hum
%
Delta-T
°C
Wind Press
QNH
hPa
Press
MSL
hPa
Rain
since 9 am
mm
Dir
 
Spd
km/h
Gust
km/h
Spd
kts
Gust
kts
15/11:30pm 30.0 35.9 27.8 88 1.6 NW 13 17 7 9 1007.9 1007.7 0.0
15/11:00pm 30.2 35.7 27.8 87 1.7 NNW 15 20 8 11 1007.8 1007.6 0.0
15/10:30pm 30.2 35.6 27.2 84 2.2 NW 13 22 7 12 1008.1 1007.9 0.0
15/10:00pm 30.3 34.8 27.5 85 2.0 NNW 19 26 10 14 1008.0 1007.8 0.0
15/09:30pm 30.3 35.5 27.9 87 1.8 NNW 17 22 9 12 1007.5 1007.3 0.0
15/09:00pm 30.3 35.0 27.7 86 1.9 NW 19 28 10 15 1007.0 1006.8 0.0

Other Formats:

Comma delimited format used in spreadsheet applications
http://www.bom.gov.au/fwo/IDD60801/IDD60801.95142.axf

JavaScript Object Notation format (JSON) in row-major order
http://www.bom.gov.au/fwo/IDD60801/IDD60801.95142.json